Time;durP1;ratioP1;P1;durP2;ratioP2;P2;SDS_P1;SDS_P2;PMS_P1;PMS_P2;Temp;Humidity;BMP_temperature;BMP_pressure;BME280_temperature;BME280_humidity;BME280_pressure;Samples;Min_cycle;Max_cycle;Signal;HPM_P1;HPM_P2
2023/09/27 00:00:19;;;;;;;3.87;3.57;;;20.50;94.00;;;;;;4926289;29;20483;-68
2023/09/27 00:02:46;;;;;;;4.67;3.37;;;20.50;93.90;;;;;;4925472;29;20462;-69
2023/09/27 00:05:12;;;;;;;3.77;3.47;;;20.60;94.00;;;;;;4942009;29;20445;-69
2023/09/27 00:07:43;;;;;;;3.60;3.30;;;20.60;94.00;;;;;;4952620;28;21061;-69
2023/09/27 00:10:11;;;;;;;4.00;3.70;;;20.50;94.00;;;;;;4961861;28;20712;-68
2023/09/27 00:12:40;;;;;;;3.53;3.30;;;20.50;93.90;;;;;;4960667;28;20477;-69
2023/09/27 00:15:11;;;;;;;4.43;4.00;;;20.50;94.00;;;;;;4961951;28;20432;-69
2023/09/27 00:17:46;;;;;;;3.90;3.60;;;20.50;93.90;;;;;;4928961;28;20539;-68
2023/09/27 00:20:17;;;;;;;3.73;3.37;;;20.50;93.90;;;;;;4962009;28;20454;-68
2023/09/27 00:22:44;;;;;;;5.37;3.67;;;20.50;94.00;;;;;;4960446;28;20443;-69
2023/09/27 00:25:14;;;;;;;4.20;3.90;;;20.50;94.00;;;;;;4964075;28;20450;-69
2023/09/27 00:27:43;;;;;;;5.97;4.10;;;20.50;94.00;;;;;;4947489;28;20460;-69
2023/09/27 00:30:13;;;;;;;4.70;3.97;;;20.50;94.00;;;;;;4963983;28;21106;-69
2023/09/27 00:32:44;;;;;;;3.80;3.50;;;20.50;94.00;;;;;;4947539;28;20909;-69
2023/09/27 00:35:19;;;;;;;3.87;3.57;;;20.40;94.00;;;;;;4965030;28;20486;-68
2023/09/27 00:37:49;;;;;;;4.33;3.60;;;20.50;94.00;;;;;;4967801;28;20431;-69
2023/09/27 00:40:21;;;;;;;3.97;3.67;;;20.40;94.00;;;;;;4967627;28;20423;-69
2023/09/27 00:42:49;;;;;;;4.17;3.77;;;20.40;94.00;;;;;;4951360;28;20517;-69
2023/09/27 00:45:22;;;;;;;3.77;3.40;;;20.40;94.00;;;;;;4967455;28;20505;-68
2023/09/27 00:47:50;;;;;;;4.00;3.70;;;20.40;94.00;;;;;;4985383;28;20447;-69
2023/09/27 00:50:17;;;;;;;4.13;3.83;;;20.40;94.00;;;;;;4985354;28;20416;-68
2023/09/27 00:52:49;;;;;;;6.80;3.70;;;20.40;94.00;;;;;;4951401;28;21120;-69
2023/09/27 00:55:19;;;;;;;3.90;3.60;;;20.40;94.00;;;;;;4967590;28;20965;-69
2023/09/27 00:57:49;;;;;;;4.30;3.90;;;20.40;94.00;;;;;;4947603;23;20522;-73
2023/09/27 01:00:18;;;;;;;3.97;3.67;;;20.40;94.40;;;;;;4933008;28;20460;-73
2023/09/27 01:02:46;;;;;;;5.20;3.63;;;20.30;94.00;;;;;;4951712;28;20442;-73
2023/09/27 01:05:16;;;;;;;4.10;3.70;;;20.40;94.10;;;;;;4949075;28;20430;-73
2023/09/27 01:07:45;;;;;;;4.20;3.90;;;20.40;94.00;;;;;;4955015;28;20499;-73
2023/09/27 01:10:11;;;;;;;4.23;3.83;;;20.30;94.00;;;;;;4959477;28;20421;-73
2023/09/27 01:12:38;;;;;;;4.00;3.63;;;20.30;94.00;;;;;;4948232;28;20971;-72
2023/09/27 01:15:06;;;;;;;5.47;3.83;;;20.30;94.00;;;;;;4963955;28;20467;-72
2023/09/27 01:17:36;;;;;;;4.03;3.63;;;20.30;93.90;;;;;;4945532;28;20443;-72
2023/09/27 01:20:02;;;;;;;4.27;3.87;;;20.40;94.00;;;;;;4933928;28;20440;-72
2023/09/27 01:22:28;;;;;;;4.67;4.10;;;20.30;93.90;;;;;;4946816;28;20463;-73
2023/09/27 01:24:58;;;;;;;4.27;3.87;;;20.30;93.90;;;;;;4947960;28;20458;-73
2023/09/27 01:27:27;;;;;;;4.47;4.07;;;20.30;93.90;;;;;;4941313;28;20431;-72
2023/09/27 01:29:53;;;;;;;4.30;3.90;;;20.30;93.90;;;;;;4944704;29;21057;-72
2023/09/27 01:32:22;;;;;;;4.83;3.97;;;20.20;93.80;;;;;;4944452;29;20520;-72
2023/09/27 01:34:48;;;;;;;4.00;3.70;;;20.20;93.80;;;;;;4928923;29;20448;-72
2023/09/27 01:37:16;;;;;;;4.07;3.77;;;20.20;93.80;;;;;;4920638;28;20538;-73
2023/09/27 01:39:47;;;;;;;4.37;3.97;;;20.20;93.80;;;;;;4945867;28;20990;-72
2023/09/27 01:42:15;;;;;;;3.90;3.60;;;20.20;93.80;;;;;;4928657;29;20558;-72
2023/09/27 01:44:42;;;;;;;4.73;4.10;;;20.20;94.00;;;;;;4933080;29;20440;-73
2023/09/27 01:47:08;;;;;;;4.13;3.83;;;20.20;93.80;;;;;;4931344;29;20455;-72
2023/09/27 01:49:36;;;;;;;3.90;3.60;;;20.20;93.80;;;;;;4915064;28;20537;-73
2023/09/27 01:52:04;;;;;;;4.27;3.87;;;20.20;93.80;;;;;;4954436;28;20800;-72
2023/09/27 01:54:31;;;;;;;3.77;3.47;;;20.20;93.80;;;;;;4935969;29;20445;-73
2023/09/27 01:56:59;;;;;;;5.00;4.10;;;20.20;93.80;;;;;;4933345;28;21321;-72
2023/09/27 01:59:25;;;;;;;4.20;3.90;;;20.20;93.80;;;;;;4961292;28;20990;-73
2023/09/27 02:01:51;;;;;;;4.47;4.13;;;20.20;93.80;;;;;;4912366;29;20467;-72
2023/09/27 02:04:23;;;;;;;4.53;3.90;;;20.10;94.10;;;;;;4936200;29;20217;-73
2023/09/27 02:06:48;;;;;;;4.63;4.07;;;20.20;93.80;;;;;;4943989;29;20435;-73
2023/09/27 02:09:14;;;;;;;3.50;3.20;;;20.10;93.70;;;;;;4927551;29;21273;-73
2023/09/27 02:11:45;;;;;;;6.00;4.10;;;20.20;93.80;;;;;;4924546;29;21009;-72
2023/09/27 02:14:14;;;;;;;4.20;3.80;;;20.10;93.70;;;;;;4924433;29;21075;-72
2023/09/27 02:16:46;;;;;;;4.40;3.90;;;20.10;93.70;;;;;;4927773;29;21131;-72
2023/09/27 02:19:14;;;;;;;3.90;3.60;;;20.10;93.70;;;;;;4943167;29;20799;-72
2023/09/27 02:21:40;;;;;;;4.40;4.00;;;20.10;93.70;;;;;;4910991;29;20445;-73
2023/09/27 02:24:10;;;;;;;5.00;4.27;;;20.10;93.60;;;;;;4934173;28;20460;-72
2023/09/27 02:26:36;;;;;;;4.20;3.90;;;20.10;93.70;;;;;;4928066;29;20609;-73
2023/09/27 02:29:02;;;;;;;4.63;4.33;;;20.10;93.60;;;;;;4951819;28;20809;-73
2023/09/27 02:31:28;;;;;;;8.23;4.17;;;20.10;93.60;;;;;;4929568;28;20440;-73
2023/09/27 02:33:54;;;;;;;4.00;3.70;;;20.00;93.60;;;;;;4963531;28;20894;-73
2023/09/27 02:36:22;;;;;;;3.73;3.43;;;20.00;93.50;;;;;;4938086;29;20461;-73
2023/09/27 02:38:52;;;;;;;4.13;3.70;;;20.00;93.50;;;;;;4945760;28;20425;-73
2023/09/27 02:41:20;;;;;;;6.17;4.27;;;20.00;93.50;;;;;;4937024;29;20450;-72
2023/09/27 02:43:46;;;;;;;6.43;3.97;;;20.00;93.50;;;;;;4952337;28;20453;-73
2023/09/27 02:46:12;;;;;;;4.53;3.90;;;20.00;93.50;;;;;;4945121;29;20430;-73
2023/09/27 02:48:38;;;;;;;4.20;3.90;;;20.00;93.50;;;;;;4952695;28;20660;-72
2023/09/27 02:51:05;;;;;;;4.10;3.80;;;20.00;93.50;;;;;;4944698;29;20440;-72
2023/09/27 02:53:31;;;;;;;4.17;3.53;;;20.00;93.40;;;;;;4952983;28;20529;-73
2023/09/27 02:55:58;;;;;;;5.07;3.90;;;20.00;93.50;;;;;;4931882;29;20703;-73
2023/09/27 02:58:24;;;;;;;4.53;4.23;;;20.00;93.40;;;;;;4943151;28;20433;-73
2023/09/27 03:00:52;;;;;;;4.27;3.87;;;20.00;93.40;;;;;;4938798;29;20432;-72
2023/09/27 03:03:19;;;;;;;4.33;4.03;;;19.90;93.40;;;;;;4908144;29;20461;-73
2023/09/27 03:05:45;;;;;;;4.63;3.50;;;19.90;93.30;;;;;;4907419;29;20436;-72
2023/09/27 03:08:12;;;;;;;3.90;3.60;;;19.90;93.30;;;;;;4930844;29;20441;-73
2023/09/27 03:10:40;;;;;;;4.43;4.13;;;19.90;93.30;;;;;;4949821;28;20810;-73
2023/09/27 03:13:08;;;;;;;3.90;3.60;;;19.90;93.30;;;;;;4937812;28;21009;-73
2023/09/27 03:15:34;;;;;;;4.63;4.33;;;19.90;93.30;;;;;;4933140;29;20435;-73
2023/09/27 03:18:00;;;;;;;6.30;4.00;;;19.90;93.70;;;;;;4913950;29;20440;-72
2023/09/27 03:20:28;;;;;;;4.83;3.97;;;19.90;93.30;;;;;;4925184;28;20598;-73
2023/09/27 03:22:55;;;;;;;5.90;3.50;;;19.90;93.30;;;;;;4942280;29;20447;-72
2023/09/27 03:25:24;;;;;;;4.40;4.00;;;19.90;93.30;;;;;;4926417;29;20843;-73
2023/09/27 03:27:52;;;;;;;3.53;3.30;;;19.80;93.30;;;;;;4942706;29;20428;-72
2023/09/27 03:30:23;;;;;;;4.47;4.10;;;19.90;93.30;;;;;;4911206;29;20439;-72
2023/09/27 03:32:54;;;;;;;4.83;4.00;;;19.80;93.30;;;;;;4947295;28;20481;-73
2023/09/27 03:35:20;;;;;;;7.23;4.40;;;19.80;93.30;;;;;;4953557;28;20506;-72
2023/09/27 03:37:47;;;;;;;4.60;4.20;;;19.80;93.30;;;;;;4961326;28;20500;-72
2023/09/27 03:40:13;;;;;;;4.27;3.97;;;19.80;93.60;;;;;;4953300;28;21223;-73
2023/09/27 03:42:44;;;;;;;4.97;4.60;;;19.80;93.30;;;;;;4901086;29;20449;-72
2023/09/27 03:45:11;;;;;;;4.43;4.03;;;19.80;93.30;;;;;;4931284;29;20481;-73
2023/09/27 03:47:38;;;;;;;5.40;4.57;;;19.80;93.30;;;;;;4926453;29;20428;-73
2023/09/27 03:50:10;;;;;;;4.50;4.20;;;19.80;93.30;;;;;;4936188;28;20798;-73
2023/09/27 03:52:40;;;;;;;6.37;4.90;;;19.80;93.30;;;;;;4928731;28;20466;-73
2023/09/27 03:55:11;;;;;;;7.83;4.33;;;19.80;93.30;;;;;;4954043;28;20491;-73
2023/09/27 03:57:43;;;;;;;4.73;4.33;;;19.70;93.30;;;;;;4929464;29;20448;-73
2023/09/27 04:00:14;;;;;;;5.43;4.93;;;19.70;93.30;;;;;;4923325;29;21171;-73
2023/09/27 04:02:46;;;;;;;4.50;4.10;;;19.70;93.30;;;;;;4939096;28;20513;-73
2023/09/27 04:05:17;;;;;;;5.90;3.93;;;19.70;93.30;;;;;;4954273;28;20953;-73
2023/09/27 04:07:43;;;;;;;4.87;4.43;;;19.70;93.30;;;;;;4919686;29;20487;-73
2023/09/27 04:10:12;;;;;;;4.43;4.10;;;19.70;93.30;;;;;;4959358;28;20459;-73
2023/09/27 04:12:38;;;;;;;5.30;4.90;;;19.70;93.30;;;;;;4926679;29;20568;-72
2023/09/27 04:15:09;;;;;;;4.77;4.30;;;19.70;93.30;;;;;;4942758;29;20463;-73
2023/09/27 04:17:37;;;;;;;4.30;4.00;;;19.60;93.20;;;;;;4944336;28;20878;-71
2023/09/27 04:20:19;;;;;;;4.77;4.43;;;19.70;93.30;;;;;;4922652;29;20450;-72
2023/09/27 04:22:48;;;;;;;4.90;4.50;;;19.60;93.20;;;;;;4936716;29;20489;-73
2023/09/27 04:25:18;;;;;;;4.80;4.40;;;19.60;93.20;;;;;;4928279;29;20809;-73
2023/09/27 04:27:49;;;;;;;5.20;4.80;;;19.60;93.30;;;;;;4944083;29;20432;-73
2023/09/27 04:30:18;;;;;;;5.13;4.33;;;19.60;93.30;;;;;;4943165;28;20447;-72
2023/09/27 04:32:50;;;;;;;3.90;3.60;;;19.60;93.30;;;;;;4950894;28;20476;-73
2023/09/27 04:35:17;;;;;;;4.37;4.00;;;19.60;93.30;;;;;;4918053;28;20470;-72
2023/09/27 04:37:45;;;;;;;5.00;4.60;;;19.60;93.30;;;;;;4944829;28;20437;-72
2023/09/27 04:40:14;;;;;;;4.47;3.87;;;19.60;93.30;;;;;;4946552;28;20463;-71
2023/09/27 04:42:46;;;;;;;4.60;4.20;;;19.50;93.20;;;;;;4933797;29;20443;-73
2023/09/27 04:45:13;;;;;;;4.60;4.20;;;19.60;93.20;;;;;;4929596;29;21214;-73
2023/09/27 04:47:41;;;;;;;4.63;4.27;;;19.60;93.20;;;;;;4935039;29;20459;-73
2023/09/27 04:50:10;;;;;;;5.07;4.67;;;19.60;93.20;;;;;;4941022;29;21048;-73
2023/09/27 04:52:39;;;;;;;5.20;4.80;;;19.50;93.20;;;;;;4952107;28;20474;-73
2023/09/27 04:55:07;;;;;;;5.13;4.63;;;19.50;93.20;;;;;;4944809;28;20510;-72
2023/09/27 04:57:35;;;;;;;4.77;4.33;;;19.50;93.20;;;;;;4973076;28;20433;-71
2023/09/27 05:00:03;;;;;;;5.20;4.70;;;19.50;93.20;;;;;;4947346;28;20484;-73
2023/09/27 05:02:30;;;;;;;4.60;4.20;;;19.50;93.20;;;;;;4969283;28;20443;-72
2023/09/27 05:04:58;;;;;;;4.37;3.97;;;19.50;93.20;;;;;;4944592;28;20447;-73
2023/09/27 05:07:27;;;;;;;5.20;4.70;;;19.50;93.10;;;;;;4952359;28;20530;-73
2023/09/27 05:09:55;;;;;;;4.67;4.30;;;19.50;93.20;;;;;;4967093;28;20445;-73
2023/09/27 05:12:21;;;;;;;5.00;4.60;;;19.50;93.20;;;;;;4961630;28;20467;-73
2023/09/27 05:14:49;;;;;;;4.63;4.27;;;19.40;93.10;;;;;;4932295;29;20854;-71
2023/09/27 05:17:15;;;;;;;4.37;4.00;;;19.50;93.20;;;;;;4974527;28;20475;-72
2023/09/27 05:19:44;;;;;;;5.67;5.20;;;19.40;93.10;;;;;;4944863;28;20470;-72
2023/09/27 05:22:11;;;;;;;5.13;4.73;;;19.40;93.10;;;;;;4964294;28;21149;-73
2023/09/27 05:25:04;;;;;;;6.53;4.50;;;19.40;93.10;;;;;;4969917;23;21049;-81
2023/09/27 05:27:36;;;;;;;4.10;3.80;;;19.40;93.10;;;;;;4922548;29;20830;-82
2023/09/27 05:30:03;;;;;;;4.40;4.00;;;19.40;93.10;;;;;;4934364;29;20471;-81
2023/09/27 05:32:34;;;;;;;5.20;4.80;;;19.30;93.00;;;;;;4916044;29;20934;-82
2023/09/27 05:35:00;;;;;;;5.03;4.60;;;19.30;93.10;;;;;;4934063;29;20515;-84
2023/09/27 05:37:25;;;;;;;5.10;4.60;;;19.30;93.10;;;;;;4923730;29;21205;-82
2023/09/27 05:39:51;;;;;;;5.93;4.70;;;19.30;93.00;;;;;;4916576;29;20436;-82
2023/09/27 05:42:20;;;;;;;5.40;4.90;;;19.30;93.00;;;;;;4940339;29;20197;-82
2023/09/27 05:44:48;;;;;;;4.87;4.53;;;19.30;93.40;;;;;;4910291;29;20852;-82
2023/09/27 05:47:15;;;;;;;5.20;4.80;;;19.30;93.00;;;;;;4899564;29;20442;-81
2023/09/27 05:49:42;;;;;;;4.83;4.43;;;19.30;93.00;;;;;;4919571;29;20532;-82
2023/09/27 05:52:16;;;;;;;5.10;4.70;;;19.30;93.00;;;;;;4916025;29;20471;-82
2023/09/27 05:54:44;;;;;;;5.00;4.50;;;19.30;93.00;;;;;;4923791;29;21269;-82
2023/09/27 05:57:10;;;;;;;4.73;4.20;;;19.30;92.90;;;;;;4907695;29;20536;-82
2023/09/27 05:59:40;;;;;;;4.83;4.33;;;19.30;93.10;;;;;;4933664;29;20471;-81
2023/09/27 06:02:08;;;;;;;4.77;4.37;;;19.30;93.00;;;;;;4940624;29;20518;-82
2023/09/27 06:04:34;;;;;;;4.63;3.70;;;19.30;93.00;;;;;;4935746;29;20508;-82
2023/09/27 06:07:04;;;;;;;4.67;4.27;;;19.20;92.90;;;;;;4913549;29;20196;-81
2023/09/27 06:09:33;;;;;;;4.77;4.27;;;19.00;92.80;;;;;;4917907;29;20200;-82
2023/09/27 06:11:58;;;;;;;4.73;4.43;;;19.20;93.00;;;;;;4943382;29;20831;-82
2023/09/27 06:14:25;;;;;;;4.47;4.10;;;19.20;93.00;;;;;;4933067;29;20539;-82
2023/09/27 06:16:53;;;;;;;4.57;4.20;;;19.20;93.00;;;;;;4905190;29;20556;-82
2023/09/27 06:19:21;;;;;;;4.80;4.30;;;19.20;93.00;;;;;;4923564;29;20469;-82
2023/09/27 06:21:49;;;;;;;4.83;4.10;;;19.20;93.10;;;;;;4927425;29;21109;-82
2023/09/27 06:24:16;;;;;;;4.53;4.23;;;19.20;93.10;;;;;;4902573;29;20947;-82
2023/09/27 06:26:44;;;;;;;4.87;4.47;;;19.10;93.00;;;;;;4937090;29;20458;-82
2023/09/27 06:29:13;;;;;;;4.93;4.30;;;19.20;93.20;;;;;;4938420;29;20564;-82
2023/09/27 06:31:38;;;;;;;4.30;3.90;;;19.10;93.20;;;;;;4933332;29;20433;-82
2023/09/27 06:34:07;;;;;;;4.70;4.30;;;19.20;93.20;;;;;;4927854;29;20533;-81
2023/09/27 06:36:35;;;;;;;4.90;4.10;;;19.20;93.60;;;;;;4931374;29;20463;-82
2023/09/27 06:39:01;;;;;;;4.10;3.80;;;19.10;93.20;;;;;;4921966;29;20445;-81
2023/09/27 06:41:30;;;;;;;6.87;4.10;;;19.20;93.20;;;;;;4953299;28;20963;-81
2023/09/27 06:43:58;;;;;;;4.30;4.00;;;19.10;93.20;;;;;;4938741;29;20438;-82
2023/09/27 06:46:28;;;;;;;4.00;3.67;;;19.10;93.20;;;;;;4925346;29;20449;-82
2023/09/27 06:48:54;;;;;;;5.17;4.77;;;19.10;93.30;;;;;;4928893;29;20770;-81
2023/09/27 06:51:23;;;;;;;4.87;4.43;;;19.10;93.40;;;;;;4926001;28;20460;-81
2023/09/27 06:53:49;;;;;;;5.10;4.70;;;19.10;93.40;;;;;;4931203;29;20290;-82
2023/09/27 06:56:17;;;;;;;5.03;4.63;;;19.10;93.40;;;;;;4927360;29;20484;-81
2023/09/27 06:58:45;;;;;;;4.87;3.83;;;19.00;93.40;;;;;;4918535;29;20441;-81
2023/09/27 07:01:16;;;;;;;5.03;4.63;;;19.10;93.50;;;;;;4920812;29;20798;-81
2023/09/27 07:03:44;;;;;;;4.63;4.23;;;19.10;93.40;;;;;;4935168;29;20459;-81
2023/09/27 07:06:10;;;;;;;4.53;4.23;;;19.10;93.50;;;;;;4933108;29;20494;-83
2023/09/27 07:08:40;;;;;;;4.50;4.20;;;19.10;93.50;;;;;;4921632;29;20489;-82
2023/09/27 07:11:08;;;;;;;4.57;4.20;;;19.10;93.90;;;;;;4931369;29;20451;-82
2023/09/27 07:13:34;;;;;;;4.67;4.27;;;19.10;93.60;;;;;;4906373;29;20853;-82
2023/09/27 07:16:17;;;;;;;4.27;3.90;;;19.10;93.60;;;;;;4937954;28;20546;-82
2023/09/27 07:18:44;;;;;;;4.70;4.40;;;19.10;93.60;;;;;;4931577;29;20433;-82
2023/09/27 07:21:11;;;;;;;5.53;3.97;;;19.10;93.70;;;;;;4931267;29;20493;-81
2023/09/27 07:23:39;;;;;;;4.53;4.13;;;19.10;93.60;;;;;;4929221;29;20514;-81
2023/09/27 07:26:06;;;;;;;4.10;3.80;;;19.10;93.60;;;;;;4931095;29;20499;-81
2023/09/27 07:28:32;;;;;;;4.43;4.03;;;19.10;93.60;;;;;;4928851;29;20941;-81
2023/09/27 07:31:01;;;;;;;4.27;3.87;;;19.10;93.60;;;;;;4931265;29;20515;-80
2023/09/27 07:33:26;;;;;;;5.00;4.60;;;19.10;93.60;;;;;;4915835;29;20487;-81
2023/09/27 07:35:58;;;;;;;4.83;4.37;;;19.00;93.60;;;;;;4924760;29;20836;-84
2023/09/27 07:38:27;;;;;;;4.33;3.97;;;19.10;93.70;;;;;;4910392;29;20984;-80
2023/09/27 07:40:58;;;;;;;4.33;4.03;;;19.10;93.70;;;;;;4893055;29;21023;-82
2023/09/27 07:43:24;;;;;;;4.67;4.27;;;19.00;93.70;;;;;;4912935;29;20459;-82
2023/09/27 07:45:49;;;;;;;4.10;3.77;;;19.10;93.80;;;;;;4931337;29;20429;-81
2023/09/27 07:48:16;;;;;;;4.20;3.73;;;19.00;93.80;;;;;;4913928;29;20235;-82
2023/09/27 07:50:44;;;;;;;4.67;4.33;;;19.10;93.80;;;;;;4945426;29;20885;-82
2023/09/27 07:53:12;;;;;;;4.00;3.60;;;19.00;93.70;;;;;;4922971;29;20647;-82
2023/09/27 07:55:43;;;;;;;5.00;4.60;;;19.00;93.70;;;;;;4919252;29;20524;-81
2023/09/27 07:58:09;;;;;;;4.80;4.30;;;19.10;93.80;;;;;;4899428;29;20432;-81
2023/09/27 08:00:40;;;;;;;4.40;4.10;;;19.00;93.80;;;;;;4912441;29;20441;-81
2023/09/27 08:03:08;;;;;;;4.50;4.10;;;19.10;93.80;;;;;;4910969;29;20471;-82
2023/09/27 08:05:42;;;;;;;4.60;4.20;;;19.10;93.80;;;;;;4927534;29;20431;-82
2023/09/27 08:08:12;;;;;;;4.13;3.83;;;19.10;93.80;;;;;;4902944;29;20439;-82
2023/09/27 08:10:43;;;;;;;4.30;3.90;;;19.10;93.80;;;;;;4930345;29;20434;-82
2023/09/27 08:13:16;;;;;;;4.97;4.57;;;19.10;93.70;;;;;;4930341;29;20487;-82
2023/09/27 08:15:43;;;;;;;6.07;5.43;;;19.10;93.80;;;;;;4925041;29;20525;-82
2023/09/27 08:18:09;;;;;;;4.97;4.53;;;19.10;93.80;;;;;;4930706;29;20444;-81
2023/09/27 08:20:37;;;;;;;4.80;4.50;;;19.10;93.70;;;;;;4913952;29;20445;-81
2023/09/27 08:23:03;;;;;;;3.90;3.60;;;19.10;93.70;;;;;;4894834;29;20452;-81
2023/09/27 08:25:29;;;;;;;3.60;3.30;;;19.10;93.70;;;;;;4930994;28;20445;-82
2023/09/27 08:27:56;;;;;;;5.13;4.73;;;19.10;93.70;;;;;;4911131;29;20475;-83
2023/09/27 08:30:22;;;;;;;4.60;4.10;;;19.10;93.70;;;;;;4922815;29;20424;-82
2023/09/27 08:32:51;;;;;;;4.47;3.77;;;19.10;93.90;;;;;;4930710;29;20476;-82
2023/09/27 08:35:17;;;;;;;5.27;4.77;;;19.10;94.00;;;;;;4932058;29;20450;-81
2023/09/27 08:37:46;;;;;;;4.67;4.27;;;19.10;94.00;;;;;;4925606;29;20530;-82
2023/09/27 08:40:15;;;;;;;4.93;4.53;;;19.20;94.10;;;;;;4941995;28;20470;-82
2023/09/27 08:42:42;;;;;;;4.47;4.07;;;19.20;94.00;;;;;;4922537;29;21560;-82
2023/09/27 08:45:16;;;;;;;5.10;4.23;;;19.20;94.20;;;;;;4928869;29;20459;-82
2023/09/27 08:47:51;;;;;;;5.10;4.60;;;19.20;94.50;;;;;;4926619;29;20483;-82
2023/09/27 08:50:20;;;;;;;4.17;3.87;;;19.20;94.20;;;;;;4935127;29;20978;-83
2023/09/27 08:52:50;;;;;;;5.10;4.67;;;19.20;94.20;;;;;;4925062;29;20552;-82
2023/09/27 08:55:19;;;;;;;5.73;5.17;;;19.20;94.20;;;;;;4926260;29;20452;-82
2023/09/27 08:57:51;;;;;;;4.77;4.47;;;19.20;94.20;;;;;;4928208;29;20583;-82
2023/09/27 09:00:26;;;;;;;5.37;4.40;;;19.20;94.20;;;;;;4924921;29;20444;-82
2023/09/27 09:03:00;;;;;;;5.03;4.70;;;19.20;94.20;;;;;;4944085;29;20459;-82
2023/09/27 09:05:28;;;;;;;4.80;4.40;;;19.20;94.20;;;;;;4928543;29;20447;-86
2023/09/27 09:07:59;;;;;;;4.63;4.23;;;19.20;94.30;;;;;;4904463;29;20907;-87
2023/09/27 09:10:28;;;;;;;4.60;4.20;;;19.20;94.40;;;;;;4935166;29;21340;-86
2023/09/27 09:12:54;;;;;;;5.00;4.60;;;19.30;94.40;;;;;;4941081;29;20549;-87
2023/09/27 09:15:34;;;;;;;5.90;4.53;;;19.30;94.50;;;;;;4913839;29;20455;-86
2023/09/27 09:18:06;;;;;;;4.80;4.40;;;19.30;94.50;;;;;;4920510;29;20448;-87
2023/09/27 09:20:48;;;;;;;7.20;4.90;;;19.30;94.60;;;;;;4935773;29;20444;-86
2023/09/27 09:23:31;;;;;;;5.93;4.70;;;19.30;94.60;;;;;;4937072;29;20482;-87
2023/09/27 09:26:03;;;;;;;4.60;4.20;;;19.40;94.40;;;;;;4936288;29;20524;-85
2023/09/27 09:28:31;;;;;;;5.17;4.77;;;19.40;94.50;;;;;;4954464;29;20479;-85
2023/09/27 09:31:02;;;;;;;4.90;4.50;;;19.40;94.40;;;;;;4950220;29;21094;-87
2023/09/27 09:33:28;;;;;;;4.93;4.40;;;19.40;94.50;;;;;;4918201;29;20480;-86
2023/09/27 09:35:56;;;;;;;4.70;4.33;;;19.40;94.50;;;;;;4909428;29;20438;-84
2023/09/27 09:38:28;;;;;;;4.50;4.20;;;19.40;94.60;;;;;;4943084;29;20924;-86
2023/09/27 09:41:00;;;;;;;5.20;4.20;;;19.40;94.50;;;;;;4897511;29;20474;-87
2023/09/27 09:43:36;;;;;;;5.20;4.50;;;19.50;94.60;;;;;;4919821;29;20459;-86
2023/09/27 09:46:06;;;;;;;10.53;4.57;;;19.50;94.60;;;;;;4899551;29;20461;-87
2023/09/27 09:48:37;;;;;;;5.13;4.73;;;19.50;94.60;;;;;;4926341;29;20423;-87
2023/09/27 09:51:06;;;;;;;4.63;4.20;;;19.50;94.60;;;;;;4902001;29;20449;-86
2023/09/27 09:53:41;;;;;;;4.53;4.23;;;19.50;94.60;;;;;;4905041;29;20477;-87
2023/09/27 09:56:08;;;;;;;5.07;4.67;;;19.60;94.60;;;;;;4951528;29;20455;-83
2023/09/27 09:59:03;;;;;;;5.73;5.33;;;19.50;94.70;;;;;;4951608;29;20430;-86
2023/09/27 10:01:37;;;;;;;5.70;5.20;;;19.60;94.80;;;;;;4919200;29;20511;-86
2023/09/27 10:04:05;;;;;;;4.97;4.57;;;19.60;94.90;;;;;;4929876;29;20475;-87
2023/09/27 10:06:33;;;;;;;5.00;4.70;;;19.60;94.90;;;;;;4928990;29;20567;-86
2023/09/27 10:09:05;;;;;;;5.30;4.80;;;19.70;94.90;;;;;;4936135;29;20604;-86
2023/09/27 10:11:36;;;;;;;4.80;4.30;;;19.70;95.00;;;;;;4916076;29;20429;-85
2023/09/27 10:14:03;;;;;;;5.10;4.70;;;19.70;95.00;;;;;;4928559;29;20540;-86
2023/09/27 10:16:29;;;;;;;5.40;4.90;;;19.70;94.80;;;;;;4928893;29;20532;-87
2023/09/27 10:19:06;;;;;;;5.50;5.00;;;19.70;95.00;;;;;;4900524;29;20470;-85
2023/09/27 10:21:54;;;;;;;6.33;5.00;;;19.80;95.10;;;;;;4934910;29;20465;-85
2023/09/27 10:24:26;;;;;;;6.50;4.90;;;19.80;95.10;;;;;;4926489;29;20505;-87
2023/09/27 10:26:53;;;;;;;7.53;5.27;;;19.90;95.20;;;;;;4915236;29;20460;-86
2023/09/27 10:29:19;;;;;;;5.07;4.67;;;19.80;95.10;;;;;;4900488;29;20545;-87
2023/09/27 10:31:57;;;;;;;5.50;5.00;;;19.90;95.20;;;;;;4949204;29;21290;-86
2023/09/27 10:34:26;;;;;;;5.10;4.53;;;20.00;95.20;;;;;;4933978;29;20921;-86
2023/09/27 10:36:54;;;;;;;5.00;4.40;;;20.00;95.20;;;;;;4908218;29;20510;-86
2023/09/27 10:39:20;;;;;;;5.27;4.53;;;20.00;95.10;;;;;;4892337;29;20457;-86
2023/09/27 10:41:53;;;;;;;5.13;4.73;;;20.00;95.10;;;;;;4899316;29;20545;-85
2023/09/27 10:44:30;;;;;;;5.03;4.53;;;20.10;95.20;;;;;;4931256;29;20908;-87
2023/09/27 10:47:04;;;;;;;5.70;4.93;;;20.00;95.10;;;;;;4897270;29;20433;-88
2023/09/27 10:49:38;;;;;;;4.93;4.43;;;20.10;95.20;;;;;;4923022;29;20448;-86
2023/09/27 10:52:18;;;;;;;8.43;4.80;;;20.10;95.20;;;;;;4914160;29;20568;-86
2023/09/27 10:54:45;;;;;;;5.10;4.70;;;20.20;95.20;;;;;;4927276;29;20465;-87
2023/09/27 10:57:14;;;;;;;4.70;4.40;;;20.20;95.20;;;;;;4912650;29;20540;-87
2023/09/27 10:59:43;;;;;;;5.50;5.00;;;20.20;95.20;;;;;;4930172;29;20436;-86
2023/09/27 11:02:09;;;;;;;5.37;4.97;;;20.20;95.20;;;;;;4914722;29;20553;-85
2023/09/27 11:04:41;;;;;;;5.37;4.97;;;20.20;95.20;;;;;;4928022;29;20440;-85
2023/09/27 11:07:10;;;;;;;5.47;5.00;;;20.30;95.20;;;;;;4924664;29;20469;-85
2023/09/27 11:09:46;;;;;;;5.30;4.80;;;20.30;95.20;;;;;;4949332;29;20443;-87
2023/09/27 11:12:21;;;;;;;5.17;4.77;;;20.30;95.20;;;;;;4909174;29;20479;-86
2023/09/27 11:14:47;;;;;;;5.47;5.10;;;20.30;95.20;;;;;;4910825;29;20481;-86
2023/09/27 11:17:25;;;;;;;4.80;4.50;;;20.40;95.20;;;;;;4917225;29;20455;-87
2023/09/27 11:19:52;;;;;;;5.53;4.97;;;20.40;95.20;;;;;;4914443;29;20502;-85
2023/09/27 11:22:28;;;;;;;5.30;4.80;;;20.40;95.20;;;;;;4932561;29;20528;-85
2023/09/27 11:24:58;;;;;;;5.30;4.90;;;20.50;95.30;;;;;;4960861;23;20691;-67
2023/09/27 11:27:27;;;;;;;5.57;5.17;;;20.50;95.40;;;;;;4952417;28;21137;-68
2023/09/27 11:29:55;;;;;;;5.50;5.10;;;20.50;95.40;;;;;;4958200;28;20421;-68
2023/09/27 11:32:23;;;;;;;5.53;4.77;;;20.60;95.40;;;;;;4945223;28;20550;-68
2023/09/27 11:34:55;;;;;;;4.87;4.57;;;20.60;95.40;;;;;;4962173;28;20443;-68
2023/09/27 11:37:29;;;;;;;9.50;4.60;;;20.60;95.30;;;;;;4963729;28;20491;-68
2023/09/27 11:40:00;;;;;;;5.43;4.93;;;20.70;95.30;;;;;;4938789;28;20788;-68
2023/09/27 11:42:27;;;;;;;4.70;4.40;;;20.70;95.30;;;;;;4945771;28;20805;-68
2023/09/27 11:45:12;;;;;;;4.90;4.60;;;20.70;95.30;;;;;;4962002;28;20452;-68
2023/09/27 11:47:49;;;;;;;4.97;4.60;;;20.70;95.10;;;;;;4961723;28;20891;-68
2023/09/27 11:50:23;;;;;;;5.30;4.83;;;20.70;95.20;;;;;;4937520;28;20742;-68
2023/09/27 11:52:50;;;;;;;4.97;4.57;;;20.80;95.20;;;;;;4944418;28;20476;-68
2023/09/27 11:55:18;;;;;;;5.30;4.90;;;20.70;95.50;;;;;;4913736;28;20448;-68
2023/09/27 11:57:46;;;;;;;7.70;4.73;;;20.80;95.30;;;;;;4961982;28;20434;-68
2023/09/27 12:00:19;;;;;;;4.77;4.47;;;20.80;95.30;;;;;;4960131;28;20479;-68
2023/09/27 12:02:45;;;;;;;4.80;4.40;;;20.80;95.40;;;;;;4937190;28;20837;-68
2023/09/27 12:05:14;;;;;;;5.50;5.10;;;20.90;95.50;;;;;;4960483;28;20461;-68
2023/09/27 12:07:39;;;;;;;6.33;5.60;;;20.90;95.50;;;;;;4940886;28;20431;-68
2023/09/27 12:10:10;;;;;;;5.57;5.07;;;20.90;95.40;;;;;;4929329;29;20432;-68
2023/09/27 12:12:37;;;;;;;5.23;4.87;;;20.90;95.50;;;;;;4951069;28;20480;-68
2023/09/27 12:15:05;;;;;;;4.70;4.30;;;21.00;95.50;;;;;;4962029;28;20472;-68
2023/09/27 12:17:31;;;;;;;5.07;4.70;;;21.00;95.50;;;;;;4961458;28;20445;-68
2023/09/27 12:20:00;;;;;;;5.83;5.33;;;21.10;95.50;;;;;;4944463;28;20472;-68
2023/09/27 12:22:32;;;;;;;5.40;5.00;;;21.10;95.50;;;;;;4928286;28;20888;-68
2023/09/27 12:25:02;;;;;;;5.10;4.60;;;21.10;95.50;;;;;;4961777;28;20466;-69
2023/09/27 12:27:32;;;;;;;5.23;4.73;;;21.10;95.50;;;;;;4936623;28;20509;-67
2023/09/27 12:29:59;;;;;;;5.20;4.80;;;21.10;95.40;;;;;;4961974;28;20560;-68
2023/09/27 12:32:27;;;;;;;5.57;5.13;;;21.10;95.30;;;;;;4964952;28;20500;-68
2023/09/27 12:34:54;;;;;;;5.73;5.00;;;21.20;95.40;;;;;;4932405;28;20430;-68
2023/09/27 12:37:22;;;;;;;5.67;5.27;;;21.20;95.50;;;;;;4964318;28;20538;-68
2023/09/27 12:39:50;;;;;;;5.13;4.73;;;21.20;95.40;;;;;;4964625;28;20540;-68
2023/09/27 12:42:16;;;;;;;4.70;4.27;;;21.20;95.40;;;;;;4956185;28;20452;-68
2023/09/27 12:44:43;;;;;;;4.83;4.43;;;21.30;95.50;;;;;;4965453;28;20952;-68
2023/09/27 12:47:09;;;;;;;5.03;4.63;;;21.30;95.40;;;;;;4963468;28;20435;-68
2023/09/27 12:49:38;;;;;;;5.33;4.93;;;21.30;95.40;;;;;;4964982;28;20789;-68
2023/09/27 12:52:04;;;;;;;5.60;5.10;;;21.30;95.40;;;;;;4947349;28;21156;-68
2023/09/27 12:54:31;;;;;;;5.30;4.40;;;21.40;95.50;;;;;;4939035;28;20589;-68
2023/09/27 12:57:03;;;;;;;5.00;4.60;;;21.40;95.40;;;;;;4947964;28;20449;-68